createdAt,value
2023-06-29T00:00:47.781Z,100290.78
2023-06-29T00:03:50.385Z,100308.34
2023-06-29T00:06:54.129Z,100309.59
2023-06-29T00:09:56.822Z,100309.97
2023-06-29T00:12:59.127Z,100287.56
2023-06-29T00:16:01.978Z,100303.56
2023-06-29T00:19:04.456Z,100291.53
2023-06-29T00:22:10.180Z,100305.13
2023-06-29T00:25:12.814Z,100309.94
2023-06-29T00:28:15.448Z,100312.31
2023-06-29T00:31:19.971Z,100294.69
2023-06-29T00:34:22.680Z,100289.09
2023-06-29T00:37:25.256Z,100291.44
2023-06-29T00:40:29.155Z,100299.03
2023-06-29T00:43:32.228Z,100299.41
2023-06-29T00:46:35.178Z,100290.94
2023-06-29T00:49:37.603Z,100292.13
2023-06-29T00:52:40.971Z,100309.75
2023-06-29T00:55:43.707Z,100288.91
2023-06-29T00:58:48.823Z,100296.09
2023-06-29T01:01:52.904Z,100304.16
2023-06-29T01:04:55.853Z,100286.56
2023-06-29T01:08:06.179Z,100300.16
2023-06-29T01:11:09.138Z,100300.59
2023-06-29T01:14:15.012Z,100308.97
2023-06-29T01:17:22.256Z,100295.44
2023-06-29T01:20:27.384Z,100298.63
2023-06-29T01:23:38.207Z,100290.66
2023-06-29T01:26:41.205Z,100297.47
2023-06-29T01:29:43.848Z,100288.22
2023-06-29T01:32:46.422Z,100279.03
2023-06-29T01:35:54.818Z,100275.47
2023-06-29T01:39:07.528Z,100289.50
2023-06-29T01:42:12.435Z,100284.31
2023-06-29T01:45:15.648Z,100285.53
2023-06-29T01:48:19.130Z,100269.94
2023-06-29T01:51:22.983Z,100291.50
2023-06-29T01:54:25.624Z,100278.63
2023-06-29T01:57:29.200Z,100278.63
2023-06-29T02:00:31.792Z,100287.44
2023-06-29T02:03:34.680Z,100291.81
2023-06-29T02:06:37.237Z,100276.94
2023-06-29T02:09:40.782Z,100290.53
2023-06-29T02:12:43.222Z,100268.91
2023-06-29T02:15:46.206Z,100285.69
2023-06-29T02:18:49.202Z,100290.47
2023-06-29T02:21:51.791Z,100265.28
2023-06-29T02:24:54.411Z,100262.38
2023-06-29T02:27:56.772Z,100289.19
2023-06-29T02:30:59.511Z,100292.78
2023-06-29T02:34:02.074Z,100279.53
2023-06-29T02:37:05.463Z,100302.41
2023-06-29T02:40:08.626Z,100280.78
2023-06-29T02:43:11.820Z,100297.22
2023-06-29T02:46:14.202Z,100268.88
2023-06-29T02:49:17.896Z,100282.03
2023-06-29T02:52:20.567Z,100292.81
2023-06-29T02:55:24.338Z,100280.81
2023-06-29T02:58:26.725Z,100291.59
2023-06-29T03:01:29.782Z,100278.31
2023-06-29T03:04:32.681Z,100275.53
2023-06-29T03:07:36.803Z,100291.84
2023-06-29T03:10:39.355Z,100280.22
2023-06-29T03:13:42.041Z,100274.22
2023-06-29T03:16:44.471Z,100283.66
2023-06-29T03:19:47.194Z,100272.56
2023-06-29T03:22:49.535Z,100271.41
2023-06-29T03:25:52.152Z,100274.19
2023-06-29T03:28:54.487Z,100282.94
2023-06-29T03:31:57.126Z,100266.59
2023-06-29T03:34:59.467Z,100284.63
2023-06-29T03:38:02.782Z,100269.81
2023-06-29T03:41:05.219Z,100295.03
2023-06-29T03:44:08.485Z,100291.87
2023-06-29T03:47:10.861Z,100288.78
2023-06-29T03:50:13.518Z,100258.41
2023-06-29T03:53:15.892Z,100292.00
2023-06-29T03:56:18.539Z,100293.22
2023-06-29T03:59:21.015Z,100302.44
2023-06-29T04:02:23.712Z,100279.69
2023-06-29T04:05:28.339Z,100292.13
2023-06-29T04:08:30.751Z,100308.13
2023-06-29T04:11:33.600Z,100280.63
2023-06-29T04:14:36.628Z,100305.00
2023-06-29T04:17:39.545Z,100300.59
2023-06-29T04:20:42.225Z,100313.84
2023-06-29T04:23:44.883Z,100306.69
2023-06-29T04:26:47.781Z,100280.31
2023-06-29T04:29:50.645Z,100291.97
2023-06-29T04:32:53.084Z,100282.75
2023-06-29T04:35:56.286Z,100286.03
2023-06-29T04:38:58.744Z,100291.22
2023-06-29T04:42:05.531Z,100272.44
2023-06-29T04:45:08.420Z,100275.69
2023-06-29T04:48:11.694Z,100278.47
2023-06-29T04:51:14.353Z,100290.09
2023-06-29T04:54:17.068Z,100278.13
2023-06-29T04:57:19.393Z,100290.91
2023-06-29T05:00:22.219Z,100272.97
2023-06-29T05:03:26.425Z,100271.00
2023-06-29T05:06:29.164Z,100287.47
2023-06-29T05:09:31.571Z,100265.44
2023-06-29T05:12:34.461Z,100285.09
2023-06-29T05:15:37.187Z,100283.53
2023-06-29T05:18:39.841Z,100287.94
2023-06-29T05:21:42.278Z,100286.38
2023-06-29T05:24:45.427Z,100286.41
2023-06-29T05:27:47.871Z,100271.22
2023-06-29T05:30:50.532Z,100270.03
2023-06-29T05:33:52.955Z,100273.25
2023-06-29T05:36:56.456Z,100281.63
2023-06-29T05:39:59.508Z,100293.63
2023-06-29T05:43:02.162Z,100295.25
2023-06-29T05:46:04.603Z,100294.47
2023-06-29T05:49:07.281Z,100281.69
2023-06-29T05:52:09.720Z,100295.31
2023-06-29T05:55:12.383Z,100286.56
2023-06-29T05:58:14.734Z,100302.56
2023-06-29T06:01:17.522Z,100281.75
2023-06-29T06:04:20.191Z,100278.16
2023-06-29T06:07:29.693Z,100297.75
2023-06-29T06:10:33.157Z,100288.97
2023-06-29T06:13:35.472Z,100297.75
2023-06-29T06:16:38.266Z,100292.13
2023-06-29T06:19:40.692Z,100292.13
2023-06-29T06:22:43.363Z,100288.94
2023-06-29T06:25:45.946Z,100308.91
2023-06-29T06:28:48.946Z,100308.88
2023-06-29T06:31:51.323Z,100298.44
2023-06-29T06:34:54.223Z,100301.63
2023-06-29T06:37:56.966Z,100293.53
2023-06-29T06:40:59.662Z,100319.47
2023-06-29T06:44:02.018Z,100315.72
2023-06-29T06:47:05.067Z,100322.13
2023-06-29T06:50:07.882Z,100298.81
2023-06-29T06:53:11.068Z,100301.16
2023-06-29T06:56:13.903Z,100309.84
2023-06-29T06:59:16.628Z,100312.13
2023-06-29T07:02:19.136Z,100295.63
2023-06-29T07:05:23.201Z,100317.06
2023-06-29T07:08:25.636Z,100318.81
2023-06-29T07:11:28.260Z,100317.16
2023-06-29T07:14:30.646Z,100324.09
2023-06-29T07:17:33.412Z,100322.22
2023-06-29T07:26:46.720Z,100315.53
2023-06-29T07:29:49.367Z,100305.22
2023-06-29T07:32:53.221Z,100318.06
2023-06-29T07:35:55.898Z,100317.03
2023-06-29T07:38:58.382Z,100295.59
2023-06-29T07:42:01.135Z,100309.91
2023-06-29T07:45:05.218Z,100323.50
2023-06-29T07:48:08.018Z,100325.44
2023-06-29T07:51:11.492Z,100327.00
2023-06-29T07:54:14.242Z,100327.22
2023-06-29T08:00:23.325Z,100305.47
2023-06-29T08:03:30.902Z,100304.31
2023-06-29T08:09:40.323Z,100311.22
2023-06-29T08:12:42.772Z,100313.88
2023-06-29T08:15:45.442Z,100315.47
2023-06-29T08:18:47.963Z,100312.44
2023-06-29T08:21:56.572Z,100291.37
2023-06-29T08:24:59.062Z,100311.75
2023-06-29T08:28:01.778Z,100311.34
2023-06-29T08:31:05.097Z,100320.72
2023-06-29T08:34:10.198Z,100310.97
2023-06-29T08:37:12.623Z,100299.19
2023-06-29T08:40:19.898Z,100318.00
2023-06-29T08:43:22.752Z,100313.69
2023-06-29T08:46:26.136Z,100299.81
2023-06-29T08:49:29.000Z,100312.47
2023-06-29T08:52:35.595Z,100303.03
2023-06-29T08:55:39.127Z,100298.72
2023-06-29T08:58:43.302Z,100304.53
2023-06-29T09:01:47.445Z,100294.59
2023-06-29T09:04:50.634Z,100317.69
2023-06-29T09:07:54.600Z,100317.16
2023-06-29T09:10:57.697Z,100315.63
2023-06-29T09:14:05.403Z,100321.94
2023-06-29T09:17:13.992Z,100315.41
2023-06-29T09:20:21.044Z,100312.19
2023-06-29T09:23:27.036Z,100300.44
2023-06-29T09:26:29.881Z,100301.31
2023-06-29T09:29:39.156Z,100313.00
2023-06-29T09:32:42.602Z,100293.25
2023-06-29T09:35:51.340Z,100317.06
2023-06-29T09:38:55.568Z,100307.31
2023-06-29T09:41:58.401Z,100295.13
2023-06-29T09:45:02.463Z,100311.28
2023-06-29T09:51:10.677Z,100309.62
2023-06-29T09:54:14.852Z,100300.75
2023-06-29T09:57:18.513Z,100310.19
2023-06-29T10:00:21.419Z,100307.81
2023-06-29T10:03:24.504Z,100297.38
2023-06-29T10:06:34.897Z,100292.81
2023-06-29T10:09:41.580Z,100300.00
2023-06-29T10:12:44.363Z,100287.53
2023-06-29T10:15:47.708Z,100296.47
2023-06-29T10:18:55.398Z,100291.50
2023-06-29T10:22:06.697Z,100287.81
2023-06-29T10:25:21.125Z,100291.53
2023-06-29T10:28:24.595Z,100284.22
2023-06-29T10:31:35.955Z,100295.34
2023-06-29T10:35:01.016Z,100279.47
2023-06-29T10:38:11.014Z,100298.84
2023-06-29T10:41:27.796Z,100292.75
2023-06-29T10:44:38.593Z,100309.31
2023-06-29T10:47:42.168Z,100297.31
2023-06-29T10:50:46.667Z,100297.69
2023-06-29T10:53:50.286Z,100302.41
2023-06-29T10:57:07.472Z,100287.69
2023-06-29T11:00:10.738Z,100293.72
2023-06-29T11:03:13.504Z,100297.31
2023-06-29T11:09:38.414Z,100276.81
2023-06-29T11:12:42.229Z,100285.34
2023-06-29T11:15:51.990Z,100268.56
2023-06-29T11:18:55.168Z,100290.06
2023-06-29T11:21:59.513Z,100274.16
2023-06-29T11:25:05.223Z,100283.97
2023-06-29T11:28:07.949Z,100273.31
2023-06-29T11:31:10.855Z,100280.63
2023-06-29T11:34:16.317Z,100259.28
2023-06-29T11:37:21.091Z,100281.81
2023-06-29T11:40:25.332Z,100260.03
2023-06-29T11:43:30.533Z,100276.31
2023-06-29T11:46:36.757Z,100252.97
2023-06-29T11:49:39.743Z,100252.12
2023-06-29T11:52:44.789Z,100255.34
2023-06-29T11:55:51.743Z,100271.56
2023-06-29T11:58:54.203Z,100261.91
2023-06-29T12:01:56.908Z,100269.44
2023-06-29T12:05:03.982Z,100244.53
2023-06-29T12:08:07.079Z,100263.72
2023-06-29T12:11:17.207Z,100256.78
2023-06-29T12:14:19.550Z,100251.94
2023-06-29T12:20:27.775Z,100254.34
2023-06-29T12:23:30.519Z,100236.00
2023-06-29T12:26:33.397Z,100235.69
2023-06-29T12:29:37.621Z,100229.09
2023-06-29T12:32:40.692Z,100243.91
2023-06-29T12:35:43.753Z,100222.75
2023-06-29T12:38:48.998Z,100230.66
2023-06-29T12:41:51.730Z,100212.63
2023-06-29T12:44:54.274Z,100216.41
2023-06-29T12:47:57.017Z,100201.06
2023-06-29T12:51:01.195Z,100207.88
2023-06-29T12:54:06.342Z,100225.88
2023-06-29T12:57:08.774Z,100202.19
2023-06-29T13:00:13.581Z,100218.47
2023-06-29T13:03:16.424Z,100199.38
2023-06-29T13:06:19.198Z,100210.72
2023-06-29T13:09:21.651Z,100207.59
2023-06-29T13:12:25.297Z,100190.97
2023-06-29T13:15:27.743Z,100197.44
2023-06-29T13:18:30.516Z,100187.69
2023-06-29T13:21:33.553Z,100204.72
2023-06-29T13:24:36.587Z,100181.84
2023-06-29T13:27:40.825Z,100196.53
2023-06-29T13:30:43.643Z,100200.31
2023-06-29T13:33:47.237Z,100187.38
2023-06-29T13:36:49.940Z,100172.19
2023-06-29T13:39:53.240Z,100171.22
2023-06-29T13:42:56.291Z,100168.41
2023-06-29T13:45:58.793Z,100193.37
2023-06-29T13:49:01.583Z,100180.53
2023-06-29T13:52:04.373Z,100188.91
2023-06-29T13:55:07.424Z,100170.91
2023-06-29T13:58:10.656Z,100184.50
2023-06-29T14:01:13.829Z,100164.72
2023-06-29T14:04:17.396Z,100173.59
2023-06-29T14:07:22.953Z,100164.41
2023-06-29T14:10:26.185Z,100139.81
2023-06-29T14:13:28.649Z,100163.69
2023-06-29T14:16:31.567Z,100148.41
2023-06-29T14:19:33.956Z,100153.78
2023-06-29T14:22:36.676Z,100149.94
2023-06-29T14:25:39.112Z,100142.66
2023-06-29T14:28:42.108Z,100138.28
2023-06-29T14:31:45.282Z,100129.75
2023-06-29T14:34:49.579Z,100137.34
2023-06-29T14:37:51.959Z,100133.34
2023-06-29T14:40:55.360Z,100141.25
2023-06-29T14:43:57.836Z,100129.91
2023-06-29T14:47:00.884Z,100124.87
2023-06-29T14:50:03.371Z,100123.25
2023-06-29T14:53:06.214Z,100132.37
2023-06-29T14:56:10.950Z,100134.91
2023-06-29T14:59:13.716Z,100132.19
2023-06-29T15:02:16.618Z,100123.47
2023-06-29T15:05:19.519Z,100126.94
2023-06-29T15:08:21.867Z,100129.13
2023-06-29T15:11:24.743Z,100112.66
2023-06-29T15:14:27.083Z,100125.13
2023-06-29T15:17:30.642Z,100110.06
2023-06-29T15:20:34.803Z,100106.72
2023-06-29T15:23:37.619Z,100117.91
2023-06-29T15:26:40.261Z,100118.00
2023-06-29T15:29:42.946Z,100122.91
2023-06-29T15:32:45.655Z,100118.16
2023-06-29T15:35:49.133Z,100103.69
2023-06-29T15:38:51.998Z,100116.03
2023-06-29T15:41:54.773Z,100104.44
2023-06-29T15:44:57.704Z,100115.75
2023-06-29T15:48:00.443Z,100115.09
2023-06-29T15:51:02.894Z,100103.97
2023-06-29T15:54:05.589Z,100103.75
2023-06-29T15:57:07.957Z,100093.41
2023-06-29T16:00:11.204Z,100099.62
2023-06-29T16:03:13.925Z,100103.16
2023-06-29T16:06:16.754Z,100094.75
2023-06-29T16:09:19.123Z,100096.12
2023-06-29T16:12:21.787Z,100089.25
2023-06-29T16:15:24.305Z,100089.56
2023-06-29T16:18:26.985Z,100090.25
2023-06-29T16:21:29.380Z,100076.69
2023-06-29T16:24:32.031Z,100084.87
2023-06-29T16:27:34.887Z,100071.16
2023-06-29T16:30:37.626Z,100087.56
2023-06-29T16:33:40.088Z,100082.69
2023-06-29T16:36:42.883Z,100087.97
2023-06-29T16:39:45.353Z,100076.00
2023-06-29T16:42:48.046Z,100074.81
2023-06-29T16:45:51.049Z,100075.19
2023-06-29T16:48:57.686Z,100074.22
2023-06-29T16:51:59.970Z,100084.78
2023-06-29T16:55:02.702Z,100070.97
2023-06-29T16:58:05.175Z,100066.75
2023-06-29T17:01:07.819Z,100063.59
2023-06-29T17:04:26.060Z,100080.31
2023-06-29T17:07:30.518Z,100074.78
2023-06-29T17:10:33.142Z,100083.81
2023-06-29T17:13:39.031Z,100081.47
2023-06-29T17:16:41.497Z,100082.44
2023-06-29T17:19:50.169Z,100069.41
2023-06-29T17:23:08.169Z,100085.09
2023-06-29T17:26:17.322Z,100083.59
2023-06-29T17:29:45.288Z,100079.38
2023-06-29T17:37:59.706Z,100078.75
2023-06-29T17:40:39.787Z,100080.16
2023-06-29T17:43:44.095Z,100086.31
2023-06-29T17:46:49.358Z,100082.81
2023-06-29T17:49:53.011Z,100085.34
2023-06-29T17:52:55.809Z,100080.28
2023-06-29T17:55:58.367Z,100082.75
2023-06-29T17:59:01.162Z,100074.78
2023-06-29T18:02:03.934Z,100077.78
2023-06-29T18:05:06.916Z,100063.66
2023-06-29T18:08:09.307Z,100081.19
2023-06-29T18:11:12.474Z,100055.88
2023-06-29T18:14:15.335Z,100079.81
2023-06-29T18:17:18.808Z,100083.16
2023-06-29T18:20:25.322Z,100085.69
2023-06-29T18:23:28.563Z,100074.31
2023-06-29T18:26:31.316Z,100082.66
2023-06-29T18:29:34.346Z,100074.06
2023-06-29T18:32:39.204Z,100072.53
2023-06-29T18:35:42.147Z,100093.41
2023-06-29T18:38:46.322Z,100090.28
2023-06-29T18:41:52.080Z,100077.31
2023-06-29T18:44:54.591Z,100094.53
2023-06-29T18:47:57.823Z,100095.41
2023-06-29T18:51:00.384Z,100097.50
2023-06-29T18:54:03.047Z,100092.34
2023-06-29T18:57:09.744Z,100098.88
2023-06-29T19:00:12.897Z,100083.81
2023-06-29T19:03:15.365Z,100081.50
2023-06-29T19:06:18.797Z,100097.87
2023-06-29T19:09:21.482Z,100091.28
2023-06-29T19:12:24.144Z,100088.13
2023-06-29T19:15:26.486Z,100086.62
2023-06-29T19:18:29.914Z,100107.06
2023-06-29T19:21:47.055Z,100110.34
2023-06-29T19:24:51.562Z,100090.03
2023-06-29T19:27:55.881Z,100108.84
2023-06-29T19:30:58.610Z,100089.41
2023-06-29T19:34:03.210Z,100115.81
2023-06-29T19:37:05.989Z,100102.00
2023-06-29T19:40:09.733Z,100097.22
2023-06-29T19:43:12.506Z,100113.59
2023-06-29T19:46:16.274Z,100118.50
2023-06-29T19:49:19.936Z,100118.13
2023-06-29T19:52:22.328Z,100101.09
2023-06-29T19:55:25.007Z,100118.69
2023-06-29T19:58:27.993Z,100096.06
2023-06-29T20:01:30.648Z,100106.94
2023-06-29T20:04:33.507Z,100108.59
2023-06-29T20:07:39.968Z,100096.72
2023-06-29T20:10:42.728Z,100129.41
2023-06-29T20:13:45.162Z,100107.91
2023-06-29T20:16:47.949Z,100110.38
2023-06-29T20:19:50.428Z,100128.72
2023-06-29T20:22:54.447Z,100123.19
2023-06-29T20:25:59.356Z,100130.44
2023-06-29T20:29:02.095Z,100129.75
2023-06-29T20:32:04.994Z,100107.44
2023-06-29T20:35:08.204Z,100109.91
2023-06-29T20:38:11.241Z,100137.03
2023-06-29T20:41:13.869Z,100127.09
2023-06-29T20:44:16.311Z,100117.22
2023-06-29T20:47:19.909Z,100131.59
2023-06-29T20:50:22.319Z,100113.72
2023-06-29T20:53:25.046Z,100119.78
2023-06-29T20:56:27.392Z,100137.00
2023-06-29T20:59:32.083Z,100115.09
2023-06-29T21:02:36.941Z,100118.31
2023-06-29T21:05:41.296Z,100131.50
2023-06-29T21:08:44.269Z,100108.34
2023-06-29T21:11:47.138Z,100129.94
2023-06-29T21:14:49.933Z,100121.19
2023-06-29T21:17:54.883Z,100134.78
2023-06-29T21:20:59.068Z,100131.97
2023-06-29T21:24:01.920Z,100121.66
2023-06-29T21:27:05.213Z,100124.91
2023-06-29T21:30:08.009Z,100120.19
2023-06-29T21:33:11.796Z,100142.59
2023-06-29T21:36:15.016Z,100126.69
2023-06-29T21:39:17.557Z,100137.00
2023-06-29T21:42:20.241Z,100142.63
2023-06-29T21:45:25.898Z,100121.94
2023-06-29T21:48:28.748Z,100141.09
2023-06-29T21:51:31.255Z,100129.22
2023-06-29T21:54:33.903Z,100143.59
2023-06-29T21:57:37.430Z,100132.44
2023-06-29T22:00:40.077Z,100145.25
2023-06-29T22:03:43.387Z,100135.69
2023-06-29T22:06:45.836Z,100140.84
2023-06-29T22:09:48.576Z,100130.53
2023-06-29T22:12:51.441Z,100130.53
2023-06-29T22:15:54.772Z,100128.53
2023-06-29T22:18:57.148Z,100131.78
2023-06-29T22:22:00.693Z,100129.41
2023-06-29T22:25:03.206Z,100135.41
2023-06-29T22:28:08.054Z,100130.62
2023-06-29T22:31:10.592Z,100148.19
2023-06-29T22:34:13.556Z,100137.44
2023-06-29T22:37:15.919Z,100133.06
2023-06-29T22:40:18.605Z,100145.81
2023-06-29T22:43:20.941Z,100135.84
2023-06-29T22:46:23.732Z,100136.69
2023-06-29T22:49:26.184Z,100151.03
2023-06-29T22:52:28.854Z,100155.03
2023-06-29T22:55:31.228Z,100124.75
2023-06-29T22:58:33.908Z,100134.75
2023-06-29T23:01:37.468Z,100134.38
2023-06-29T23:04:40.131Z,100132.03
2023-06-29T23:07:45.606Z,100152.81
2023-06-29T23:10:50.066Z,100147.22
2023-06-29T23:13:52.432Z,100136.47
2023-06-29T23:16:55.341Z,100129.28
2023-06-29T23:19:58.336Z,100125.28
2023-06-29T23:23:01.088Z,100140.88
2023-06-29T23:26:03.534Z,100120.91
2023-06-29T23:29:06.657Z,100132.09
2023-06-29T23:32:09.184Z,100127.31
2023-06-29T23:35:12.072Z,100114.16
2023-06-29T23:38:14.378Z,100132.94
2023-06-29T23:41:18.935Z,100132.97
2023-06-29T23:44:21.314Z,100117.00
2023-06-29T23:47:24.045Z,100120.22
2023-06-29T23:50:26.486Z,100133.34
2023-06-29T23:53:29.104Z,100140.19
2023-06-29T23:56:31.481Z,100119.44
2023-06-29T23:59:34.125Z,100137.00
